Cannon Beach, OR (97110)

8:22 PM PDT en Abril 17, 2015 (GMT -0700)
Cannon Beach | | Change Station
CLOSE
Current Station
Estación meteorológica personal
Location: Cannon Beach, OR
Altura: 36 ft
Estaciones meteorológicas cercanas

Alt 36 ft 45.90 °N, 123.96 °W | Updated 28 seconds ago

Despejado
Despejado
52.3 ° F
Sensación térmica 52.3 ° F
N
0.0
Viento Variable Viento desde NE
Gusts 0.0 mph

Hoy
Alta -- | Baja -- ° F
--% Posibilidad de precipitaciones
Ayer
Alta -- | Baja -- ° F
Precip. -- pul
6:26 AM 8:05 PM
Creciente menguante, 1% visible
Presión 30.29 pul
Visibilidad 10.0 Millas
Nubes Despejado
Punto de rocío 48 ° F
Humedad 85%
Precipitaciones 0.00 pul
Espesor de la nieve No disponible.
UV 0.0 de una escala de 12
Polen 9.80 de una escala de 12
Calidad del aire No disponible.
Flu Activity Regional
METAR KAST 180255Z AUTO 31009KT 10SM CLR 11/08 A3029 RMK AO2 SLP255 T01060078 57000

More Conditions Fewer Conditions

Presión 30.29 pul
Visibilidad 10.0 Millas
Nubes Despejado
Punto de rocío 48 ° F
Humedad 85%
Precipitaciones 0.00 pul
Espesor de la nieve No disponible.
UV 0.0 de una escala de 12
Polen 9.80 de una escala de 12
Calidad del aire No disponible.
Flu Activity Regional
METAR KAST 180255Z AUTO 31009KT 10SM CLR 11/08 A3029 RMK AO2 SLP255 T01060078 57000

More Conditions Fewer Conditions

10-Day Weather Forecast

Almanac

Astronomía

Apr. 17, 2015 Salida Puesta
Hora real
Crepúsculo civil
Crepúsculo náutico
Crepúsculo astronómico
Luna
Horas de luz
Horas de luz
Tomorrow will be .
, % of the Moon is Illuminated

Extremos de hoy

Máximos del estado Bajos del estado

Community

WunderPhotos

Upload Photos

1,814,315 ¡fotos cargadas!

WunderBlogs® & News

Nearby

Calidad del aire

  Calidad del aire Índice AQ Contaminante
Not available.

Grosos de nieve

Estación Profundido Altura

Actividad de terremotos

Ciudad Distance Mag. Tiempo y dato
Magnitud mínima muestra es 2,5.

Temperaturas de aguas costeras

Lugar Temperatura

Stations

Estaciones meteorológicas cercanas

Ubicación de la estación Temp. Vientos helados Punto de rocío Humedad Viento Precip. Alt Actualizado Tipo